Карточка аэропорта UOOO

Внимание!
Информация на этой странице в стадии наполнения.
Если вы не увидели какой-то информации, или заметили неточность - пожалуйста сообщите нам!
Спасибо!
Команда RU-STAFF
Название аэропортаАлыкель
Название аэропорта (англ.)Alykel
Превышение574 ft. (175 m.)
Координаты69°19.02', 87°19.02'
Высота перехода1200m
Эшелон переходаQFE>744:FL60;744>QFE>717:FL70;717>QFE:FL80
Коды ответчика5401-5427
Зона ОрВДКрасноярск РПИ (UNKL)
Данные METARUOOO 300600Z 31003MPS 0350 0300SE R19/0400N -SHSN FG VV003 00/00 Q1026 R19/29//60 NOSIG RMK QFE753/1004
Проноз погоды (TAF)UOOO 300455Z 3006/0106 30003G08MPS 0500 -SHSN FZFG BKN003 BKN010CB TEMPO 3006/3008 1500 -SHSN BR BECMG 3008/3010 6000 -SHSN BKN011CB TEMPO 3010/0106 0400 -SHSN FZFG VV004
NOTAMshow/hide NOTAM
AWOS   TABLE

Информация о ВПП

ВПП Длина ВПП (м.) Покрытие Курс ВПП Частота ILS
193430Бетон193110.3
013430Бетон13109.5

Диспетчерские позиции

Позывной Наименование органа УВД Частота
UOOO_GNDНорильск - Руление121.700
UOOO_APPНорильск - Круг120.400
UOOO_TWRНорильск - Старт118.300



Спутниковое изображение